createdAt,value
2023-04-24T00:01:49.020Z,4.22
2023-04-24T00:04:18.311Z,4.32
2023-04-24T00:06:50.591Z,6.78
2023-04-24T00:09:18.649Z,3.97
2023-04-24T00:11:46.576Z,4.03
2023-04-24T00:14:15.878Z,4.63
2023-04-24T00:16:43.868Z,3.70
2023-04-24T00:19:12.251Z,4.50
2023-04-24T00:21:40.202Z,5.83
2023-04-24T00:24:10.043Z,4.10
2023-04-24T00:26:37.924Z,4.00
2023-04-24T00:29:05.912Z,4.10
2023-04-24T00:31:35.970Z,4.23
2023-04-24T00:34:04.337Z,4.15
2023-04-24T00:36:33.545Z,4.13
2023-04-24T00:39:01.457Z,4.28
2023-04-24T00:41:29.424Z,3.73
2023-04-24T00:43:57.403Z,3.90
2023-04-24T00:46:25.438Z,4.07
2023-04-24T00:48:55.127Z,3.90
2023-04-24T00:51:23.147Z,3.70
2023-04-24T00:53:52.091Z,3.47
2023-04-24T00:56:20.942Z,3.83
2023-04-24T00:58:49.769Z,3.47
2023-04-24T01:01:18.058Z,3.13
2023-04-24T01:03:46.716Z,3.27
2023-04-24T01:06:16.379Z,3.83
2023-04-24T01:08:45.306Z,3.50
2023-04-24T01:11:13.661Z,3.20
2023-04-24T01:13:42.192Z,3.40
2023-04-24T01:16:10.380Z,3.47
2023-04-24T01:18:39.290Z,2.65
2023-04-24T01:21:08.806Z,3.23
2023-04-24T01:23:38.168Z,3.10
2023-04-24T01:26:06.203Z,2.93
2023-04-24T01:28:34.246Z,3.30
2023-04-24T01:31:02.174Z,3.30
2023-04-24T01:33:30.237Z,3.23
2023-04-24T01:35:58.788Z,3.40
2023-04-24T01:38:26.853Z,3.47
2023-04-24T01:40:56.201Z,3.07
2023-04-24T01:43:24.148Z,3.27
2023-04-24T01:45:52.067Z,3.50
2023-04-24T01:48:20.269Z,3.20
2023-04-24T01:50:48.854Z,3.60
2023-04-24T01:53:16.829Z,3.33
2023-04-24T01:55:44.891Z,3.40
2023-04-24T01:58:14.179Z,3.00
2023-04-24T02:00:42.170Z,3.43
2023-04-24T02:03:10.321Z,3.00
2023-04-24T02:05:38.386Z,3.33
2023-04-24T02:08:06.323Z,3.70
2023-04-24T02:10:34.171Z,3.17
2023-04-24T02:13:02.069Z,3.53
2023-04-24T02:15:31.379Z,3.50
2023-04-24T02:17:59.375Z,3.37
2023-04-24T02:20:27.630Z,3.50
2023-04-24T02:22:57.793Z,3.60
2023-04-24T02:25:26.074Z,3.37
2023-04-24T02:27:55.091Z,3.77
2023-04-24T02:30:23.044Z,3.90
2023-04-24T02:32:52.611Z,4.00
2023-04-24T02:35:21.836Z,3.53
2023-04-24T02:37:49.872Z,3.97
2023-04-24T02:40:17.824Z,3.50
2023-04-24T02:42:45.780Z,3.80
2023-04-24T02:45:13.638Z,3.77
2023-04-24T02:47:41.668Z,3.40
2023-04-24T02:50:11.578Z,3.77
2023-04-24T02:52:39.613Z,3.50
2023-04-24T02:55:09.025Z,3.87
2023-04-24T02:57:36.955Z,3.93
2023-04-24T03:00:07.891Z,4.03
2023-04-24T03:02:35.900Z,3.90
2023-04-24T03:05:05.664Z,3.80
2023-04-24T03:07:34.925Z,4.13
2023-04-24T03:10:02.770Z,8.00
2023-04-24T03:12:30.722Z,3.90
2023-04-24T03:14:58.625Z,3.80
2023-04-24T03:17:26.712Z,4.33
2023-04-24T03:19:54.595Z,4.10
2023-04-24T03:22:22.558Z,4.60
2023-04-24T03:24:51.865Z,4.17
2023-04-24T03:27:20.108Z,4.70
2023-04-24T03:29:48.025Z,4.40
2023-04-24T03:32:16.036Z,4.00
2023-04-24T03:34:43.937Z,4.40
2023-04-24T03:37:11.987Z,3.73
2023-04-24T03:39:40.036Z,4.00
2023-04-24T03:42:09.526Z,4.00
2023-04-24T03:44:37.793Z,4.03
2023-04-24T03:47:06.129Z,4.10
2023-04-24T03:49:34.018Z,4.23
2023-04-24T03:52:02.034Z,4.30
2023-04-24T03:54:29.909Z,4.37
2023-04-24T03:56:58.055Z,4.80
2023-04-24T03:59:27.412Z,4.57
2023-04-24T04:01:55.538Z,5.23
2023-04-24T04:04:23.912Z,10.60
2023-04-24T04:06:52.141Z,5.00
2023-04-24T04:09:20.139Z,4.83
2023-04-24T04:11:48.068Z,4.50
2023-04-24T04:14:15.957Z,5.27
2023-04-24T04:16:45.621Z,4.80
2023-04-24T04:19:13.628Z,4.93
2023-04-24T04:21:41.614Z,5.13
2023-04-24T04:24:10.775Z,4.63
2023-04-24T04:26:38.814Z,4.10
2023-04-24T04:29:07.750Z,4.10
2023-04-24T04:31:35.697Z,3.60
2023-04-24T04:34:05.003Z,3.67
2023-04-24T04:36:32.851Z,3.73
2023-04-24T04:39:01.122Z,3.80
2023-04-24T04:41:29.054Z,3.77
2023-04-24T04:43:59.567Z,3.40
2023-04-24T04:46:28.157Z,3.23
2023-04-24T04:48:57.723Z,2.83
2023-04-24T04:51:27.017Z,2.80
2023-04-24T04:53:54.911Z,2.93
2023-04-24T04:56:23.003Z,3.20
2023-04-24T04:58:50.904Z,3.17
2023-04-24T05:01:18.832Z,3.17
2023-04-24T05:03:46.964Z,2.90
2023-04-24T05:06:15.128Z,2.97
2023-04-24T05:08:44.567Z,3.03
2023-04-24T05:11:13.582Z,3.10
2023-04-24T05:13:41.570Z,3.53
2023-04-24T05:16:09.749Z,3.10
2023-04-24T05:18:37.781Z,5.17
2023-04-24T05:21:05.772Z,3.77
2023-04-24T05:23:33.809Z,3.50
2023-04-24T05:26:04.577Z,3.23
2023-04-24T05:28:34.298Z,3.40
2023-04-24T05:31:02.244Z,3.80
2023-04-24T05:33:30.247Z,3.97
2023-04-24T05:35:58.711Z,4.10
2023-04-24T05:38:26.815Z,4.17
2023-04-24T05:40:54.808Z,3.70
2023-04-24T05:43:24.313Z,3.97
2023-04-24T05:45:52.319Z,4.30
2023-04-24T05:48:20.394Z,4.87
2023-04-24T05:50:48.999Z,4.83
2023-04-24T05:53:17.651Z,5.00
2023-04-24T05:55:45.783Z,5.57
2023-04-24T05:58:14.017Z,4.80
2023-04-24T06:00:44.638Z,4.77
2023-04-24T06:03:12.834Z,4.77
2023-04-24T06:05:40.888Z,4.40
2023-04-24T06:08:08.962Z,5.13
2023-04-24T06:10:37.081Z,5.22
2023-04-24T06:13:05.020Z,4.97
2023-04-24T06:15:33.004Z,4.63
2023-04-24T06:18:02.397Z,4.90
2023-04-24T06:20:30.483Z,5.10
2023-04-24T06:22:58.678Z,5.22
2023-04-24T06:25:28.366Z,4.80
2023-04-24T06:27:56.370Z,5.13
2023-04-24T06:30:24.407Z,5.40
2023-04-24T06:32:53.201Z,4.80
2023-04-24T06:35:23.087Z,5.40
2023-04-24T06:37:51.326Z,5.45
2023-04-24T06:40:19.799Z,4.85
2023-04-24T06:42:47.884Z,5.70
2023-04-24T06:45:15.868Z,6.07
2023-04-24T06:47:44.309Z,5.40
2023-04-24T06:50:13.014Z,5.47
2023-04-24T06:52:43.087Z,7.05
2023-04-24T06:55:12.174Z,7.10
2023-04-24T06:57:40.106Z,5.78
2023-04-24T07:00:10.414Z,5.60
2023-04-24T07:02:38.757Z,5.47
2023-04-24T07:05:07.973Z,5.35
2023-04-24T07:07:38.828Z,5.57
2023-04-24T07:10:09.736Z,5.20
2023-04-24T07:12:38.559Z,5.63
2023-04-24T07:15:08.941Z,5.63
2023-04-24T07:17:37.099Z,5.43
2023-04-24T07:20:06.629Z,5.35
2023-04-24T07:22:34.546Z,5.13
2023-04-24T07:25:02.740Z,6.32
2023-04-24T07:27:32.050Z,5.72
2023-04-24T07:29:59.907Z,5.60
2023-04-24T07:32:27.797Z,5.68
2023-04-24T07:34:56.295Z,4.85
2023-04-24T07:37:24.996Z,5.25
2023-04-24T07:39:52.966Z,5.40
2023-04-24T07:42:20.928Z,4.57
2023-04-24T07:44:50.207Z,4.82
2023-04-24T07:47:18.241Z,4.53
2023-04-24T07:49:46.272Z,4.50
2023-04-24T07:52:14.216Z,4.80
2023-04-24T07:54:44.735Z,4.60
2023-04-24T07:57:12.830Z,5.03
2023-04-24T07:59:41.094Z,4.68
2023-04-24T08:02:10.818Z,5.00
2023-04-24T08:04:38.905Z,4.70
2023-04-24T08:07:06.916Z,4.63
2023-04-24T08:09:34.835Z,4.50
2023-04-24T08:12:03.646Z,5.07
2023-04-24T08:14:31.825Z,4.90
2023-04-24T08:17:01.210Z,4.35
2023-04-24T08:19:30.515Z,4.25
2023-04-24T08:21:58.391Z,4.35
2023-04-24T08:24:26.406Z,4.53
2023-04-24T08:26:55.446Z,4.05
2023-04-24T08:29:23.479Z,4.30
2023-04-24T08:31:51.627Z,3.92
2023-04-24T08:34:19.572Z,3.88
2023-04-24T08:36:49.267Z,3.70
2023-04-24T08:39:18.105Z,4.28
2023-04-24T08:41:46.686Z,4.03
2023-04-24T08:44:16.770Z,4.32
2023-04-24T08:46:46.349Z,3.88
2023-04-24T08:49:17.289Z,3.95
2023-04-24T08:51:45.834Z,3.65
2023-04-24T08:54:16.728Z,3.53
2023-04-24T08:56:46.589Z,4.20
2023-04-24T08:59:15.291Z,3.50
2023-04-24T09:01:44.073Z,3.83
2023-04-24T09:04:13.988Z,3.45
2023-04-24T09:06:42.718Z,3.45
2023-04-24T09:09:12.843Z,3.58
2023-04-24T09:11:43.685Z,3.88
2023-04-24T09:14:12.335Z,3.60
2023-04-24T09:16:40.330Z,3.50
2023-04-24T09:19:08.320Z,3.42
2023-04-24T09:21:37.190Z,3.67
2023-04-24T09:24:08.211Z,3.75
2023-04-24T09:26:38.229Z,3.90
2023-04-24T09:29:07.537Z,3.53
2023-04-24T09:31:35.861Z,3.63
2023-04-24T09:34:08.125Z,3.35
2023-04-24T09:36:39.252Z,3.42
2023-04-24T09:39:11.819Z,3.40
2023-04-24T09:41:47.074Z,3.60
2023-04-24T09:44:17.942Z,3.35
2023-04-24T09:46:47.667Z,2.90
2023-04-24T09:49:17.322Z,3.20
2023-04-24T09:51:45.570Z,3.55
2023-04-24T09:54:17.917Z,8.55
2023-04-24T09:56:47.455Z,3.75
2023-04-24T09:59:18.744Z,3.40
2023-04-24T10:01:47.399Z,3.33
2023-04-24T10:04:20.558Z,3.20
2023-04-24T10:06:49.882Z,3.35
2023-04-24T10:09:18.564Z,2.85
2023-04-24T10:11:48.643Z,3.60
2023-04-24T10:14:19.219Z,3.40
2023-04-24T10:16:48.162Z,4.18
2023-04-24T10:19:17.060Z,3.65
2023-04-24T10:21:47.711Z,3.80
2023-04-24T10:24:16.268Z,3.17
2023-04-24T10:26:44.884Z,3.47
2023-04-24T10:29:13.862Z,2.95
2023-04-24T10:31:46.632Z,3.15
2023-04-24T10:34:16.737Z,3.92
2023-04-24T10:36:48.425Z,3.08
2023-04-24T10:39:18.853Z,3.03
2023-04-24T10:41:47.463Z,3.00
2023-04-24T10:44:17.136Z,3.08
2023-04-24T10:46:48.727Z,3.03
2023-04-24T10:49:16.759Z,3.22
2023-04-24T10:51:50.113Z,3.15
2023-04-24T10:54:25.424Z,3.33
2023-04-24T10:56:54.092Z,3.22
2023-04-24T10:59:29.467Z,3.33
2023-04-24T11:01:58.913Z,3.00
2023-04-24T11:04:36.410Z,3.20
2023-04-24T11:07:05.839Z,3.20
2023-04-24T11:09:37.405Z,5.45
2023-04-24T11:12:08.052Z,3.42
2023-04-24T11:15:03.754Z,3.28
2023-04-24T11:17:35.284Z,3.38
2023-04-24T11:20:15.393Z,3.17
2023-04-24T11:22:56.503Z,3.20
2023-04-24T11:25:26.355Z,3.45
2023-04-24T11:28:05.643Z,3.63
2023-04-24T11:30:34.728Z,2.50
2023-04-24T11:33:06.543Z,3.17
2023-04-24T11:35:41.209Z,2.22
2023-04-24T11:40:40.816Z,2.40
2023-04-24T11:43:10.912Z,2.28
2023-04-24T11:45:38.872Z,2.78
2023-04-24T11:48:08.319Z,2.40
2023-04-24T11:50:36.859Z,2.28
2023-04-24T11:53:06.568Z,2.50
2023-04-24T11:55:34.554Z,2.80
2023-04-24T11:58:02.727Z,2.38
2023-04-24T12:00:32.741Z,2.50
2023-04-24T12:03:10.536Z,2.30
2023-04-24T12:05:39.440Z,2.63
2023-04-24T12:08:07.748Z,2.63
2023-04-24T12:10:36.785Z,2.70
2023-04-24T12:13:05.132Z,2.70
2023-04-24T12:15:33.305Z,2.75
2023-04-24T12:18:01.878Z,2.72
2023-04-24T12:20:32.780Z,2.50
2023-04-24T12:23:03.026Z,2.58
2023-04-24T12:25:32.458Z,2.50
2023-04-24T12:28:12.772Z,2.65
2023-04-24T12:30:44.033Z,2.60
2023-04-24T12:33:12.392Z,2.67
2023-04-24T12:35:43.084Z,2.53
2023-04-24T12:38:13.849Z,2.30
2023-04-24T12:40:43.521Z,2.20
2023-04-24T12:43:18.125Z,2.30
2023-04-24T12:45:46.495Z,2.13
2023-04-24T12:48:15.741Z,2.25
2023-04-24T12:50:47.547Z,2.50
2023-04-24T12:53:16.337Z,3.03
2023-04-24T12:55:45.596Z,2.42
2023-04-24T12:58:13.920Z,2.58
2023-04-24T13:00:44.481Z,2.83
2023-04-24T13:03:12.874Z,2.70
2023-04-24T13:05:41.257Z,2.83
2023-04-24T13:08:10.695Z,2.67
2023-04-24T13:10:39.004Z,2.85
2023-04-24T13:13:07.009Z,2.92
2023-04-24T13:15:35.457Z,2.58
2023-04-24T13:18:03.785Z,2.60
2023-04-24T13:20:32.217Z,2.75
2023-04-24T13:23:00.138Z,2.88
2023-04-24T13:25:30.769Z,2.55
2023-04-24T13:27:58.632Z,2.90
2023-04-24T13:30:26.601Z,2.78
2023-04-24T13:32:54.557Z,2.22
2023-04-24T13:35:22.559Z,2.85
2023-04-24T13:37:52.872Z,2.63
2023-04-24T13:40:23.891Z,3.00
2023-04-24T13:42:55.495Z,2.75
2023-04-24T13:45:25.175Z,2.60
2023-04-24T13:47:55.330Z,2.60
2023-04-24T13:50:23.577Z,2.45
2023-04-24T13:52:51.677Z,2.42
2023-04-24T13:55:19.813Z,2.47
2023-04-24T13:57:47.912Z,2.80
2023-04-24T14:00:18.418Z,3.20
2023-04-24T14:02:46.470Z,3.03
2023-04-24T14:05:15.203Z,2.60
2023-04-24T14:07:43.602Z,2.63
2023-04-24T14:10:12.260Z,2.38
2023-04-24T14:12:46.403Z,2.80
2023-04-24T14:15:14.700Z,2.60
2023-04-24T14:17:44.275Z,2.60
2023-04-24T14:20:14.568Z,2.50
2023-04-24T14:22:43.993Z,2.60
2023-04-24T14:25:12.424Z,3.00
2023-04-24T14:27:41.178Z,2.47
2023-04-24T14:30:10.414Z,2.40
2023-04-24T14:32:41.049Z,2.88
2023-04-24T14:35:11.108Z,2.42
2023-04-24T14:37:39.284Z,3.00
2023-04-24T14:40:26.690Z,2.60
2023-04-24T14:42:58.237Z,2.10
2023-04-24T14:45:26.300Z,2.20
2023-04-24T14:47:54.574Z,2.58
2023-04-24T14:50:24.895Z,2.35
2023-04-24T14:52:53.157Z,2.53
2023-04-24T14:55:22.122Z,2.55
2023-04-24T14:57:50.128Z,2.38
2023-04-24T15:00:19.189Z,2.65
2023-04-24T15:02:47.428Z,2.63
2023-04-24T15:05:16.014Z,2.97
2023-04-24T15:07:46.539Z,2.60
2023-04-24T15:10:14.458Z,2.88
2023-04-24T15:12:42.455Z,2.92
2023-04-24T15:15:11.473Z,3.17
2023-04-24T15:17:39.777Z,2.88
2023-04-24T15:20:08.928Z,2.88
2023-04-24T15:22:37.484Z,3.35
2023-04-24T15:25:08.131Z,4.07
2023-04-24T15:27:43.649Z,3.50
2023-04-24T15:30:12.763Z,3.30
2023-04-24T15:32:49.948Z,3.03
2023-04-24T15:35:18.639Z,3.30
2023-04-24T15:37:47.014Z,3.15
2023-04-24T15:40:17.662Z,3.55
2023-04-24T15:42:46.423Z,3.30
2023-04-24T15:45:14.758Z,3.47
2023-04-24T15:47:42.813Z,3.08
2023-04-24T15:50:14.340Z,3.40
2023-04-24T15:52:43.088Z,3.40
2023-04-24T15:55:11.866Z,3.38
2023-04-24T15:57:41.330Z,3.75
2023-04-24T16:00:11.355Z,3.63
2023-04-24T16:02:41.236Z,3.50
2023-04-24T16:05:09.906Z,3.80
2023-04-24T16:07:39.816Z,3.80
2023-04-24T16:10:08.551Z,8.52
2023-04-24T16:12:36.724Z,5.20
2023-04-24T16:15:09.522Z,5.00
2023-04-24T16:17:38.327Z,4.75
2023-04-24T16:20:10.182Z,4.20
2023-04-24T16:22:40.075Z,4.53
2023-04-24T16:25:09.355Z,4.78
2023-04-24T16:27:38.823Z,4.35
2023-04-24T16:30:10.632Z,3.70
2023-04-24T16:32:39.286Z,4.00
2023-04-24T16:35:08.420Z,4.25
2023-04-24T16:37:37.142Z,3.92
2023-04-24T16:40:10.820Z,4.43
2023-04-24T16:42:40.079Z,4.55
2023-04-24T16:45:11.658Z,4.43
2023-04-24T16:47:40.322Z,5.07
2023-04-24T16:50:10.050Z,4.88
2023-04-24T16:52:39.448Z,5.57
2023-04-24T16:55:10.286Z,4.55
2023-04-24T16:57:39.171Z,4.85
2023-04-24T17:00:11.659Z,4.30
2023-04-24T17:02:41.006Z,4.97
2023-04-24T17:05:10.280Z,5.20
2023-04-24T17:07:38.999Z,4.65
2023-04-24T17:10:09.468Z,5.30
2023-04-24T17:12:38.163Z,5.07
2023-04-24T17:15:08.008Z,5.90
2023-04-24T17:17:42.790Z,5.68
2023-04-24T17:20:22.080Z,6.28
2023-04-24T17:22:53.157Z,5.80
2023-04-24T17:25:22.282Z,5.70
2023-04-24T17:27:51.022Z,5.28
2023-04-24T17:30:19.640Z,5.70
2023-04-24T17:32:51.118Z,5.90
2023-04-24T17:35:23.110Z,6.38
2023-04-24T17:37:52.161Z,6.78
2023-04-24T17:40:20.947Z,5.65
2023-04-24T17:42:51.241Z,6.15
2023-04-24T17:45:19.281Z,6.35
2023-04-24T17:47:47.332Z,6.38
2023-04-24T17:50:16.833Z,6.38
2023-04-24T17:52:44.729Z,6.88
2023-04-24T17:55:12.837Z,6.55
2023-04-24T17:57:41.141Z,6.32
2023-04-24T18:00:13.288Z,6.45
2023-04-24T18:02:41.397Z,6.55
2023-04-24T18:05:09.540Z,6.47
2023-04-24T18:07:39.285Z,6.47
2023-04-24T18:10:08.380Z,6.63
2023-04-24T18:12:36.257Z,7.30
2023-04-24T18:15:14.361Z,5.40
2023-04-24T18:17:42.972Z,3.97
2023-04-24T18:20:12.006Z,4.22
2023-04-24T18:22:41.846Z,3.20
2023-04-24T18:25:14.035Z,2.70
2023-04-24T18:27:42.637Z,3.23
2023-04-24T18:30:14.719Z,2.97
2023-04-24T18:32:43.319Z,3.37
2023-04-24T18:35:11.737Z,3.58
2023-04-24T18:37:41.694Z,3.80
2023-04-24T18:40:11.362Z,3.80
2023-04-24T18:42:39.642Z,4.10
2023-04-24T18:45:08.795Z,3.47
2023-04-24T18:47:37.072Z,3.60
2023-04-24T18:50:05.462Z,3.60
2023-04-24T18:52:33.548Z,3.33
2023-04-24T18:55:03.667Z,3.00
2023-04-24T18:57:32.316Z,3.03
2023-04-24T19:00:01.223Z,3.20
2023-04-24T19:02:29.423Z,3.30
2023-04-24T19:04:57.402Z,3.50
2023-04-24T19:07:25.239Z,3.90
2023-04-24T19:09:53.214Z,4.10
2023-04-24T19:12:23.205Z,7.03
2023-04-24T19:14:51.748Z,5.75
2023-04-24T19:17:23.633Z,6.78
2023-04-24T19:19:52.434Z,6.40
2023-04-24T19:22:20.980Z,6.53
2023-04-24T19:24:49.097Z,6.82
2023-04-24T19:27:17.162Z,10.48
2023-04-24T19:29:46.632Z,7.35
2023-04-24T19:32:14.669Z,6.68
2023-04-24T19:34:42.696Z,6.85
2023-04-24T19:37:11.164Z,5.18
2023-04-24T19:39:39.146Z,5.28
2023-04-24T19:42:07.775Z,4.82
2023-04-24T19:44:35.893Z,5.07
2023-04-24T19:47:05.340Z,3.42
2023-04-24T19:49:33.193Z,3.42
2023-04-24T19:52:01.360Z,6.30
2023-04-24T19:54:29.808Z,3.97
2023-04-24T19:56:58.233Z,3.67
2023-04-24T19:59:26.175Z,3.22
2023-04-24T20:01:55.239Z,3.50
2023-04-24T20:04:25.835Z,3.40
2023-04-24T20:06:54.047Z,2.80
2023-04-24T20:09:23.119Z,2.90
2023-04-24T20:11:52.522Z,1.45
2023-04-24T20:14:20.672Z,1.20
2023-04-24T20:16:49.593Z,1.42
2023-04-24T20:19:17.994Z,1.70
2023-04-24T20:21:47.739Z,3.55
2023-04-24T20:24:16.730Z,2.10
2023-04-24T20:26:45.257Z,2.08
2023-04-24T20:29:13.985Z,2.20
2023-04-24T20:31:42.228Z,3.90
2023-04-24T20:34:10.794Z,2.30
2023-04-24T20:36:39.220Z,1.70
2023-04-24T20:39:09.287Z,1.70
2023-04-24T20:41:38.704Z,2.08
2023-04-24T20:44:07.067Z,2.47
2023-04-24T20:46:35.236Z,3.58
2023-04-24T20:49:03.628Z,2.27
2023-04-24T20:51:32.441Z,2.33
2023-04-24T20:54:00.330Z,2.03
2023-04-24T20:56:29.780Z,2.10
2023-04-24T20:58:57.918Z,2.03
2023-04-24T21:01:26.110Z,2.10
2023-04-24T21:03:58.417Z,1.60
2023-04-24T21:06:26.500Z,2.67
2023-04-24T21:08:54.594Z,1.90
2023-04-24T21:11:22.589Z,1.35
2023-04-24T21:13:52.180Z,1.30
2023-04-24T21:16:20.942Z,1.43
2023-04-24T21:18:48.935Z,2.20
2023-04-24T21:21:16.941Z,1.65
2023-04-24T21:23:45.065Z,1.60
2023-04-24T21:26:16.022Z,1.30
2023-04-24T21:28:44.819Z,1.80
2023-04-24T21:31:14.976Z,1.40
2023-04-24T21:33:42.996Z,1.75
2023-04-24T21:36:11.300Z,1.63
2023-04-24T21:38:40.359Z,1.55
2023-04-24T21:41:08.267Z,1.80
2023-04-24T21:43:44.036Z,1.80
2023-04-24T21:46:14.174Z,2.10
2023-04-24T21:48:42.099Z,1.67
2023-04-24T21:51:10.277Z,1.70
2023-04-24T21:53:38.308Z,1.37
2023-04-24T21:56:06.858Z,1.33
2023-04-24T21:58:35.784Z,1.10
2023-04-24T22:01:03.765Z,1.00
2023-04-24T22:03:33.394Z,1.02
2023-04-24T22:06:01.435Z,1.33
2023-04-24T22:08:29.344Z,1.10
2023-04-24T22:10:57.917Z,1.10
2023-04-24T22:13:25.896Z,1.00
2023-04-24T22:15:54.007Z,0.90
2023-04-24T22:18:24.599Z,1.38
2023-04-24T22:20:58.586Z,1.17
2023-04-24T22:23:26.648Z,1.20
2023-04-24T22:25:54.586Z,1.20
2023-04-24T22:28:22.500Z,1.30
2023-04-24T22:30:50.428Z,1.23
2023-04-24T22:33:18.521Z,1.30
2023-04-24T22:35:46.477Z,1.30
2023-04-24T22:38:17.258Z,1.20
2023-04-24T22:40:45.178Z,1.40
2023-04-24T22:43:13.465Z,1.40
2023-04-24T22:45:41.558Z,1.23
2023-04-24T22:48:09.525Z,1.07
2023-04-24T22:50:37.576Z,1.48
2023-04-24T22:53:05.485Z,1.23
2023-04-24T22:55:34.856Z,1.27
2023-04-24T22:58:02.954Z,1.30
2023-04-24T23:00:30.872Z,1.60
2023-04-24T23:02:58.981Z,1.35
2023-04-24T23:05:28.065Z,1.40
2023-04-24T23:07:56.046Z,1.40
2023-04-24T23:10:26.636Z,1.63
2023-04-24T23:12:56.083Z,2.43
2023-04-24T23:15:24.057Z,2.80
2023-04-24T23:17:52.695Z,2.50
2023-04-24T23:20:23.576Z,2.40
2023-04-24T23:22:51.545Z,2.23
2023-04-24T23:25:20.713Z,2.40
2023-04-24T23:27:48.667Z,2.30
2023-04-24T23:30:17.916Z,2.30
2023-04-24T23:32:45.853Z,2.50
2023-04-24T23:35:13.960Z,2.63
2023-04-24T23:37:41.910Z,2.50
2023-04-24T23:40:11.500Z,2.80
2023-04-24T23:42:39.559Z,2.43
2023-04-24T23:45:08.510Z,2.40
2023-04-24T23:47:37.804Z,2.60
2023-04-24T23:50:06.875Z,2.83
2023-04-24T23:52:35.394Z,3.00
2023-04-24T23:55:04.728Z,2.17
2023-04-24T23:57:32.682Z,2.30
